• Join FlightAware (Why Join?)
  • Login
  • US Flag 
03:57AM EDT


 

Airport Tracker/Info


-or-


 

Live Flight TrackerFlight Track Log ✈ SWA625 ✈ 04-May-2013 ✈ KMCO - KBWI

Flight Track Log - Related Links

Times and Time Zones

All times are in EDT time to prevent confusion due to time zone crossing. See the SWA625 flight status page for this flight to view local times or setup timezone preferences in your user account.

Time Position Orientation Groundspeed Altitude Reporting Facility
EDT Latitude Longitude Course Direction KTS MPH feet Rate Location/Type
07:20PM 28.3667 -81.3167 204° Southwest 209 241 2,100  Level Orlando TRACON
07:21PM 28.3500 -81.3833 254° West 234 269 4,300 2,700 Climbing Orlando TRACON
07:21PM 28.3833 -81.4333 307° West 248 285 7,100 2,760 Climbing Orlando TRACON
07:22PM 28.4500 -81.4500 348° North 276 318 9,700 2,400 Climbing Orlando TRACON
07:24PM 28.5889 -81.4953 344° North 286 329 14,400 1,980 Climbing Jacksonville Center
07:25PM 28.6747 -81.5225 344° North 292 336 15,800 1,260 Climbing Jacksonville Center
07:26PM 28.7731 -81.5544 344° North 326 375 17,000 1,620 Climbing Jacksonville Center
07:27PM 28.8819 -81.5883 345° North 365 420 19,100 2,220 Climbing Jacksonville Center
07:28PM 28.9889 -81.6225 344° North 387 445 21,500 2,280 Climbing Jacksonville Center
07:29PM 29.0936 -81.6544 345° North 387 445 23,700 1,860 Climbing Jacksonville Center
07:30PM 29.2003 -81.6889 344° North 392 451 25,300 1,200 Climbing Jacksonville Center
07:31PM 29.3217 -81.7303 343° North 403 464 26,200 960 Climbing Jacksonville Center
07:32PM 29.4369 -81.7575 348° North 410 472 27,300 1,200 Climbing Jacksonville Center
07:33PM 29.5561 -81.7847 349° North 420 483 28,600 1,440 Climbing Jacksonville Center
07:34PM 29.6772 -81.8097 350° North 434 499 30,200 1,800 Climbing Jacksonville Center
07:35PM 29.7925 -81.8322 350° North 434 499 32,200 1,380 Climbing Jacksonville Center
07:36PM 29.9075 -81.8550 350° North 423 487 33,000 360 Climbing Jacksonville Center
07:37PM 30.0244 -81.8753 351° North 423 487 33,000  Level Jacksonville Center
07:38PM 30.1269 -81.8864 355° North 417 480 33,000  Level Jacksonville Center
07:39PM 30.2458 -81.8875 360° North 417 480 33,000  Level Jacksonville Center
07:40PM 30.3625 -81.8622 11° North 417 480 33,000  Level Jacksonville Center
07:41PM 30.4811 -81.8175 18° North 430 495 33,000  Level Jacksonville Center
07:42PM 30.6019 -81.7775 16° North 435 501 33,000  Level Jacksonville Center
07:43PM 30.7206 -81.7328 18° North 435 501 33,000  Level Jacksonville Center
07:44PM 30.8392 -81.6900 17° North 441 507 33,000  Level Jacksonville Center
07:45PM 30.9600 -81.6450 18° North 441 507 33,000  Level Jacksonville Center
07:46PM 31.0806 -81.6044 16° North 441 507 33,000  Level Jacksonville Center
07:47PM 31.1950 -81.5592 19° North 436 502 33,000  Level Jacksonville Center
07:48PM 31.3133 -81.5114 19° North 436 502 33,000  Level Jacksonville Center
07:49PM 31.4278 -81.4683 18° North 436 502 33,000  Level Jacksonville Center
07:50PM 31.5567 -81.4225 17° North 436 502 33,000  Level Jacksonville Center
07:51PM 31.6711 -81.3792 18° North 436 502 33,000 300 Level Jacksonville Center
07:52PM 31.7769 -81.3408 17° North 431 496 33,700 780 Climbing Jacksonville Center
07:53PM 31.8933 -81.2947 19° North 437 503 34,600 600 Climbing Jacksonville Center
07:54PM 32.0119 -81.2533 16° North 437 503 35,000 120 Climbing Jacksonville Center
07:55PM 32.1364 -81.1997 20° North 432 497 34,900  Descending Jacksonville Center
07:56PM 32.2272 -81.1194 37° Northeast 438 504 35,000  Climbing Jacksonville Center
07:57PM 32.3239 -81.0267 39° Northeast 450 518 35,000  Level Jacksonville Center
07:58PM 32.4186 -80.9261 42° Northeast 450 518 35,000  Level Jacksonville Center
07:59PM 32.5253 -80.8228 39° Northeast 450 518 35,000  Level Jacksonville Center
08:00PM 32.6197 -80.7269 41° Northeast 450 518 35,000  Level Jacksonville Center
08:01PM 32.7183 -80.6283 40° Northeast 450 518 35,000  Level Jacksonville Center
08:02PM 32.8144 -80.5294 41° Northeast 455 524 35,000 240 Level Jacksonville Center
08:03PM 32.9108 -80.4331 40° Northeast 455 524 35,500 480 Climbing Jacksonville Center
08:04PM 33.0008 -80.3414 40° Northeast 460 529 36,000 300 Climbing Jacksonville Center
08:05PM 33.1011 -80.2444 39° Northeast 467 537 36,100 480 Climbing Jacksonville Center
08:06PM 33.2094 -80.1344 40° Northeast 466 536 37,000 420 Climbing Jacksonville Center
08:07PM 33.3033 -80.0344 42° Northeast 461 531 37,000  Level Jacksonville Center
08:08PM 33.3950 -79.9369 42° Northeast 456 525 37,000  Level Jacksonville Center
08:09PM 33.4906 -79.8392 40° Northeast 451 519 37,000  Level Jacksonville Center
08:10PM 33.5842 -79.7439 40° Northeast 451 519 37,000  Level Jacksonville Center
08:11PM 33.6778 -79.6456 41° Northeast 451 519 37,000  Level Jacksonville Center
08:12PM 33.7733 -79.5497 40° Northeast 451 519 37,000  Level Jacksonville Center
08:13PM 33.8714 -79.4658 35° Northeast 446 513 37,000  Level Jacksonville Center
08:14PM 33.9569 -79.4000 33° Northeast 431 496 37,000  Level Jacksonville Center
08:16PM 34.1622 -79.2336 34° Northeast 435 501 37,000  Level Washington Center
08:17PM 34.2456 -79.1669 33° Northeast 435 501 37,000  Level Washington Center
08:18PM 34.3592 -79.0686 36° Northeast 440 506 37,000  Level Washington Center
08:19PM 34.4700 -78.9828 33° Northeast 434 499 37,000  Level Washington Center
08:20PM 34.5622 -78.9008 36° Northeast 434 499 37,000  Level Washington Center
08:21PM 34.6703 -78.8369 26° Northeast 439 505 37,000  Level Washington Center
08:22PM 34.7844 -78.7808 22° Northeast 434 499 37,000  Level Washington Center
08:23PM 34.8944 -78.7219 24° Northeast 429 494 37,000  Level Washington Center
08:24PM 35.0044 -78.6653 23° Northeast 423 487 37,000  Level Washington Center
08:25PM 35.1164 -78.6086 22° Northeast 423 487 37,000  Level Washington Center
08:26PM 35.2264 -78.5492 24° Northeast 423 487 37,000  Level Washington Center
08:27PM 35.3344 -78.4894 24° Northeast 423 487 37,000  Level Washington Center
08:28PM 35.4633 -78.4253 22° Northeast 437 503 37,000  Level Washington Center
08:29PM 35.5794 -78.3603 24° Northeast 442 509 37,000  Level Washington Center
08:30PM 35.6914 -78.3031 23° Northeast 442 509 37,000  Level Washington Center
08:31PM 35.8033 -78.2453 23° Northeast 437 503 37,000  Level Washington Center
08:32PM 35.9172 -78.1850 23° Northeast 437 503 37,000  Level Washington Center
08:33PM 36.0269 -78.1269 23° Northeast 437 503 37,000  Level Washington Center
08:34PM 36.1325 -78.0711 23° Northeast 432 497 37,000 -660 Level Washington Center
08:35PM 36.2400 -78.0128 24° Northeast 419 482 35,700 -2,100 Descending Washington Center
08:36PM 36.3497 -77.9542 23° Northeast 414 476 32,800 -2,640 Descending Washington Center
08:37PM 36.4425 -77.9028 24° Northeast 420 483 30,500 -1,920 Descending Washington Center
08:38PM 36.5542 -77.8442 23° Northeast 420 483 29,000 -780 Descending Washington Center
08:39PM 36.6661 -77.7800 25° Northeast 426 490 29,000  Level Washington Center
08:40PM 36.7778 -77.7208 23° Northeast 426 490 29,000 -540 Level Washington Center
08:41PM 36.8914 -77.6592 23° Northeast 426 490 28,000 -840 Descending Washington Center
08:42PM 37.0050 -77.5972 24° Northeast 431 496 27,400 -780 Descending Washington Center
08:43PM 37.1231 -77.5300 24° Northeast 443 510 26,500 -1,200 Descending Washington Center
08:44PM 37.2389 -77.4675 23° Northeast 443 510 25,000 -1,740 Descending Washington Center
08:45PM 37.3503 -77.4050 24° Northeast 438 504 23,000 -1,020 Descending Washington Center
08:46PM 37.4533 -77.3500 23° Northeast 424 488 23,000  Level Washington Center
08:47PM 37.5561 -77.3078 18° North 400 460 23,000  Level Washington Center
08:48PM 37.6669 -77.2867 North 387 445 23,000  Level Washington Center
08:49PM 37.7819 -77.2628 North 399 459 23,000  Level Washington Center
08:50PM 37.8969 -77.2392 North 412 474 23,000 -240 Level Washington Center
08:51PM 38.0122 -77.2153 North 417 480 22,600 -1,320 Descending Washington Center
08:52PM 38.1250 -77.1967 North 417 480 20,300 -2,340 Descending Washington Center
08:53PM 38.2275 -77.1617 15° North 395 455 18,000 -1,800 Descending Washington Center
08:54PM 38.3058 -77.0761 41° Northeast 370 426 16,800 -1,140 Descending Washington Center
08:55PM 38.3733 -77.0033 40° Northeast 346 398 15,800 -1,140 Descending Washington Center
08:56PM 38.4494 -76.9147 42° Northeast 333 383 14,600 -1,320 Descending Washington Center
08:57PM 38.5192 -76.8389 40° Northeast 328 377 13,200 -1,620 Descending Washington Center
08:58PM 38.5867 -76.7656 40° Northeast 322 371 11,400 -1,560 Descending Washington Center
08:59PM 38.6681 -76.7431 12° North 295 339 10,100 -1,500 Descending Washington Center
09:00PM 38.7453 -76.7336 North 288 331 8,500 -1,500 Descending Washington Center
09:02PM 38.9167 -76.7500 356° North 267 307 5,400 -1,320 Descending Potomac TRACON
09:03PM 38.9833 -76.7500 360° North 247 284 4,500 -900 Descending Potomac TRACON
09:04PM 39.0500 -76.7667 349° North 218 251 3,600 -900 Descending Potomac TRACON
09:05PM 39.1000 -76.7667 360° North 194 223 2,700 -1,080 Descending Potomac TRACON
09:06PM 39.1500 -76.7667 360° North 168 193 1,500 -840 Descending Potomac TRACON
09:07PM 39.1833 -76.7500 21° North 144 166 1,200 -600 Descending Potomac TRACON
09:08PM 39.1833 -76.7000 90° East 138 159 500 -780 Descending Potomac TRACON
09:10PM 39.1667 -76.6667 104° East  Level FlightAware Approximate
09:17PM 39.1754 -76.6683 104° East  Level Estimated
09:18PM 39.1754 -76.6683 104° East  Level Estimated
09:19PM 39.1754 -76.6683 104° East  Level Estimated